Time;durP1;ratioP1;P1;durP2;ratioP2;P2;SDS_P1;SDS_P2;PMS_P1;PMS_P2;Temp;Humidity;BMP_temperature;BMP_pressure;BME280_temperature;BME280_humidity;BME280_pressure;Samples;Min_cycle;Max_cycle;Signal;HPM_P1;HPM_P2
2021/08/08 00:02:12;;;;;;;1.02;0.68;;;14.60;99.90;;;;;;4978307;28;20134;-91
2021/08/08 00:04:38;;;;;;;0.82;0.82;;;14.50;99.90;;;;;;4957056;28;20030;-90
2021/08/08 00:07:04;;;;;;;1.15;0.77;;;14.50;99.90;;;;;;4973401;28;20556;-90
2021/08/08 00:09:30;;;;;;;2.47;0.82;;;14.50;99.90;;;;;;4975706;28;20041;-90
2021/08/08 00:11:55;;;;;;;0.70;0.70;;;14.50;99.90;;;;;;4974058;28;20033;-90
2021/08/08 00:14:21;;;;;;;0.60;0.60;;;14.50;99.90;;;;;;4992490;28;20065;-91
2021/08/08 00:16:47;;;;;;;3.65;1.23;;;14.40;99.90;;;;;;4976344;28;20037;-90
2021/08/08 00:19:16;;;;;;;1.25;1.15;;;14.40;99.90;;;;;;4991901;28;20041;-90
2021/08/08 00:21:42;;;;;;;3.90;0.70;;;14.40;99.90;;;;;;4992257;28;20556;-90
2021/08/08 00:24:08;;;;;;;2.60;0.98;;;14.40;99.90;;;;;;4992591;28;20109;-89
2021/08/08 00:26:34;;;;;;;0.68;0.68;;;14.40;99.90;;;;;;4960127;28;20400;-90
2021/08/08 00:29:00;;;;;;;0.80;0.75;;;14.30;99.90;;;;;;4991956;28;20118;-90
2021/08/08 00:31:25;;;;;;;0.80;0.50;;;14.30;99.90;;;;;;4991840;28;20484;-91
2021/08/08 00:33:55;;;;;;;0.60;0.60;;;14.30;99.90;;;;;;4979763;28;20323;-89
2021/08/08 00:36:22;;;;;;;1.10;0.60;;;14.30;99.90;;;;;;4982631;28;20030;-91
2021/08/08 00:38:49;;;;;;;1.08;0.98;;;14.30;99.90;;;;;;4997356;28;20031;-89
2021/08/08 00:41:16;;;;;;;1.85;0.80;;;14.30;99.90;;;;;;4980107;28;20505;-91
2021/08/08 00:43:42;;;;;;;0.88;0.77;;;14.20;99.90;;;;;;4980219;28;20037;-90
2021/08/08 00:46:09;;;;;;;1.77;0.90;;;14.20;99.90;;;;;;4963840;28;20084;-89
2021/08/08 00:48:35;;;;;;;1.90;0.80;;;14.20;99.90;;;;;;4997101;28;20022;-89
2021/08/08 00:51:01;;;;;;;1.00;0.73;;;14.20;99.90;;;;;;4965058;28;20037;-90
2021/08/08 00:53:39;;;;;;;1.40;0.75;;;14.20;99.90;;;;;;4996608;28;20093;-90
2021/08/08 00:56:06;;;;;;;0.73;0.50;;;14.10;99.90;;;;;;4979849;28;20114;-90
2021/08/08 00:58:33;;;;;;;3.95;0.70;;;14.10;99.90;;;;;;4994989;28;20098;-89
2021/08/08 01:01:03;;;;;;;0.77;0.77;;;14.10;99.90;;;;;;4978461;28;20033;-90
2021/08/08 01:03:30;;;;;;;2.45;0.70;;;14.10;99.90;;;;;;4995035;28;20023;-89
2021/08/08 01:06:07;;;;;;;0.63;0.60;;;14.00;99.90;;;;;;4977236;28;20037;-89
2021/08/08 01:08:35;;;;;;;3.17;0.75;;;14.00;99.90;;;;;;4975891;28;20042;-89
2021/08/08 01:11:03;;;;;;;1.90;0.73;;;14.10;99.90;;;;;;4976058;28;20432;-91
2021/08/08 01:13:32;;;;;;;0.98;0.82;;;14.00;99.90;;;;;;4991547;28;20081;-89
2021/08/08 01:15:58;;;;;;;1.83;0.82;;;14.00;99.90;;;;;;4991429;28;20104;-89
2021/08/08 01:18:25;;;;;;;1.27;1.17;;;14.00;99.90;;;;;;4975487;28;20275;-88
2021/08/08 01:20:53;;;;;;;0.77;0.77;;;14.10;99.90;;;;;;4975542;28;20154;-89
2021/08/08 01:23:24;;;;;;;1.20;0.77;;;14.10;99.90;;;;;;4991837;28;20033;-89
2021/08/08 01:25:59;;;;;;;3.47;0.90;;;14.00;99.90;;;;;;4975768;28;20046;-89
2021/08/08 01:28:25;;;;;;;4.13;0.93;;;14.00;99.90;;;;;;4991713;28;20388;-89
2021/08/08 01:30:51;;;;;;;0.80;0.80;;;14.00;99.90;;;;;;4975388;28;20072;-89
2021/08/08 01:33:18;;;;;;;2.42;0.82;;;14.00;99.90;;;;;;4991931;28;20041;-89
2021/08/08 01:35:54;;;;;;;;;;;14.00;99.90;;;;;;4992072;28;20515;-89
2021/08/08 01:38:39;;;;;;;0.60;0.60;;;13.90;99.90;;;;;;4975575;28;19910;-89
2021/08/08 01:41:10;;;;;;;2.25;0.82;;;13.90;99.90;;;;;;4975899;28;20023;-90
2021/08/08 01:43:47;;;;;;;0.80;0.80;;;13.90;99.90;;;;;;4976701;28;20053;-91
2021/08/08 01:46:15;;;;;;;1.38;1.27;;;13.90;99.90;;;;;;4959405;28;20041;-91
2021/08/08 01:48:55;;;;;;;0.95;0.90;;;13.90;99.90;;;;;;5002577;28;20524;-90
2021/08/08 01:51:22;;;;;;;1.80;1.10;;;13.90;99.90;;;;;;4971276;28;20026;-90
2021/08/08 01:53:50;;;;;;;1.60;1.20;;;13.90;99.90;;;;;;4994435;28;20057;-92
2021/08/08 01:56:17;;;;;;;0.82;0.80;;;13.90;99.90;;;;;;4983813;28;20026;-91
2021/08/08 01:58:47;;;;;;;2.85;0.95;;;13.90;99.90;;;;;;4975836;28;20031;-91
2021/08/08 02:01:18;;;;;;;2.15;0.80;;;14.00;99.90;;;;;;4991220;28;20030;-91
2021/08/08 02:03:44;;;;;;;1.88;1.02;;;14.00;99.90;;;;;;4974656;28;20030;-91
2021/08/08 02:06:14;;;;;;;0.70;0.63;;;14.00;99.90;;;;;;4962563;28;20033;-91
2021/08/08 02:08:46;;;;;;;0.82;0.70;;;14.00;99.90;;;;;;4971794;28;20081;-90
2021/08/08 02:11:15;;;;;;;0.88;0.80;;;14.00;99.90;;;;;;4997201;28;20453;-89
2021/08/08 02:13:52;;;;;;;1.00;0.90;;;14.00;99.90;;;;;;4998666;28;20038;-89
2021/08/08 02:16:21;;;;;;;0.93;0.93;;;14.10;99.90;;;;;;4999139;28;20030;-89
2021/08/08 02:18:47;;;;;;;1.13;0.88;;;14.10;99.90;;;;;;4998459;28;20030;-89
2021/08/08 02:21:19;;;;;;;0.73;0.70;;;14.00;99.90;;;;;;4982031;28;20026;-90
2021/08/08 02:23:45;;;;;;;1.33;0.75;;;14.00;99.90;;;;;;4997928;28;20029;-88
2021/08/08 02:26:13;;;;;;;4.28;1.13;;;14.00;99.90;;;;;;4982579;28;20468;-89
2021/08/08 02:28:47;;;;;;;1.27;0.95;;;14.00;99.90;;;;;;4997176;28;20062;-90
2021/08/08 02:31:19;;;;;;;1.83;1.20;;;14.00;99.90;;;;;;4996730;28;20485;-91
2021/08/08 02:33:48;;;;;;;1.02;0.88;;;14.00;99.90;;;;;;4997288;28;20109;-88
2021/08/08 02:36:15;;;;;;;4.22;1.02;;;13.90;99.90;;;;;;4997413;28;20034;-90
2021/08/08 02:38:50;;;;;;;1.65;1.10;;;13.90;99.90;;;;;;4997176;28;20053;-91
2021/08/08 02:41:15;;;;;;;1.92;1.20;;;13.90;99.90;;;;;;4991479;28;20121;-91
2021/08/08 02:43:44;;;;;;;3.17;1.20;;;13.90;99.90;;;;;;4959053;28;20374;-91
2021/08/08 02:46:10;;;;;;;3.00;1.20;;;14.00;99.90;;;;;;4969353;28;20026;-90
2021/08/08 02:48:36;;;;;;;3.60;1.35;;;13.90;99.90;;;;;;4994431;28;20117;-91
2021/08/08 02:51:04;;;;;;;1.25;1.10;;;13.90;99.90;;;;;;4977665;28;20061;-92
2021/08/08 02:53:32;;;;;;;1.02;1.02;;;13.90;99.90;;;;;;4977887;28;20109;-93
2021/08/08 02:55:58;;;;;;;1.13;1.10;;;13.80;99.90;;;;;;4978118;28;20066;-91
2021/08/08 02:58:25;;;;;;;3.08;1.20;;;13.80;99.90;;;;;;4994226;28;20484;-88
2021/08/08 03:00:51;;;;;;;3.15;1.23;;;13.80;99.90;;;;;;4978100;28;20065;-89
2021/08/08 03:03:18;;;;;;;1.85;1.15;;;13.80;99.90;;;;;;4994008;28;20041;-90
2021/08/08 03:05:44;;;;;;;1.52;1.02;;;13.80;99.90;;;;;;4994008;28;20061;-90
2021/08/08 03:08:13;;;;;;;2.25;1.10;;;13.80;99.90;;;;;;4978313;28;20025;-89
2021/08/08 03:10:39;;;;;;;3.17;1.30;;;13.80;99.90;;;;;;4993711;28;20042;-89
2021/08/08 03:13:05;;;;;;;1.83;1.10;;;13.80;99.90;;;;;;4994116;28;20503;-90
2021/08/08 03:15:34;;;;;;;1.10;1.00;;;13.80;99.90;;;;;;4993521;28;20022;-91
2021/08/08 03:18:00;;;;;;;2.72;1.10;;;13.80;99.90;;;;;;4977345;28;20030;-89
2021/08/08 03:20:28;;;;;;;1.30;1.20;;;13.80;99.90;;;;;;4961472;28;20046;-89
2021/08/08 03:22:56;;;;;;;0.85;0.85;;;13.90;99.90;;;;;;4977907;28;20038;-89
2021/08/08 03:25:22;;;;;;;1.10;1.00;;;13.90;99.90;;;;;;4993618;28;20031;-89
2021/08/08 03:27:50;;;;;;;1.10;1.00;;;13.90;99.90;;;;;;4988927;28;20034;-90
2021/08/08 03:30:17;;;;;;;1.27;1.17;;;14.00;99.90;;;;;;4989842;28;20030;-90
2021/08/08 03:32:44;;;;;;;1.20;1.10;;;13.90;99.90;;;;;;4989875;28;20031;-90
2021/08/08 03:35:10;;;;;;;1.65;0.90;;;14.00;99.90;;;;;;4990175;28;20545;-90
2021/08/08 03:37:40;;;;;;;1.15;0.93;;;14.00;99.90;;;;;;4976819;28;20031;-91
2021/08/08 03:40:06;;;;;;;1.65;1.00;;;14.00;99.90;;;;;;4992155;28;20118;-92
2021/08/08 03:42:32;;;;;;;1.10;1.00;;;14.00;99.90;;;;;;4976855;28;20117;-90
2021/08/08 03:44:59;;;;;;;1.00;0.95;;;14.00;99.90;;;;;;4973906;28;20031;-92
2021/08/08 03:47:25;;;;;;;1.40;1.00;;;14.00;99.90;;;;;;4987477;28;20058;-90
2021/08/08 03:49:51;;;;;;;1.90;0.90;;;14.00;99.90;;;;;;4973571;28;20070;-91
2021/08/08 03:52:16;;;;;;;2.25;0.75;;;14.10;99.90;;;;;;4973493;28;20039;-90
2021/08/08 03:54:43;;;;;;;0.70;0.70;;;14.10;99.90;;;;;;4974653;28;20027;-89
2021/08/08 03:57:09;;;;;;;0.60;0.60;;;14.10;99.90;;;;;;4976099;28;20038;-89
2021/08/08 03:59:35;;;;;;;2.72;1.00;;;14.10;99.90;;;;;;4959391;28;20062;-89
2021/08/08 04:02:01;;;;;;;2.90;0.88;;;14.10;99.90;;;;;;4974705;28;20058;-90
2021/08/08 04:04:27;;;;;;;2.53;1.00;;;14.10;99.90;;;;;;4975682;28;20114;-89
2021/08/08 04:06:53;;;;;;;1.10;0.77;;;14.10;99.90;;;;;;4976768;28;20265;-89
2021/08/08 04:09:19;;;;;;;0.70;0.70;;;14.10;99.90;;;;;;4976572;28;20038;-89
2021/08/08 04:11:47;;;;;;;0.98;0.73;;;14.10;99.90;;;;;;4977226;28;20031;-88
2021/08/08 04:14:14;;;;;;;2.50;0.82;;;14.10;99.90;;;;;;4975709;28;20409;-89
2021/08/08 04:16:40;;;;;;;1.10;0.88;;;14.10;99.90;;;;;;4975590;28;20041;-90
2021/08/08 04:19:06;;;;;;;0.70;0.68;;;14.10;99.90;;;;;;4974980;28;20027;-90
2021/08/08 04:21:40;;;;;;;1.00;0.70;;;14.00;99.90;;;;;;4976315;28;20035;-89
2021/08/08 04:24:09;;;;;;;0.95;0.63;;;14.00;99.90;;;;;;4975226;28;20042;-90
2021/08/08 04:26:36;;;;;;;3.38;1.00;;;14.00;99.90;;;;;;4983530;28;20395;-90
2021/08/08 04:29:02;;;;;;;1.85;0.73;;;14.00;99.90;;;;;;4991246;28;20035;-90
2021/08/08 04:31:32;;;;;;;0.70;0.70;;;14.00;99.90;;;;;;4991889;28;20030;-91
2021/08/08 04:33:58;;;;;;;1.33;0.77;;;13.90;99.90;;;;;;4972967;28;20056;-89
2021/08/08 04:36:29;;;;;;;3.72;0.68;;;13.90;99.90;;;;;;4956797;28;20557;-89
2021/08/08 04:38:57;;;;;;;2.83;0.60;;;14.00;99.90;;;;;;4972523;28;20125;-89
2021/08/08 04:41:23;;;;;;;1.45;0.70;;;14.00;99.90;;;;;;4972766;28;20029;-89
2021/08/08 04:43:49;;;;;;;0.95;0.90;;;14.10;99.90;;;;;;4972852;28;20113;-88
2021/08/08 04:46:15;;;;;;;2.15;0.70;;;14.10;99.90;;;;;;4973069;28;20027;-89
2021/08/08 04:48:42;;;;;;;1.33;0.70;;;14.10;99.90;;;;;;4972941;28;20038;-88
2021/08/08 04:51:07;;;;;;;0.98;0.88;;;14.20;99.90;;;;;;4972692;28;20030;-89
2021/08/08 04:53:33;;;;;;;0.60;0.60;;;14.30;99.90;;;;;;4972728;28;20089;-89
2021/08/08 04:56:00;;;;;;;1.17;0.70;;;14.30;99.90;;;;;;4973209;28;20551;-89
2021/08/08 04:58:28;;;;;;;1.50;0.70;;;14.30;99.90;;;;;;4974110;28;20121;-89
2021/08/08 05:00:54;;;;;;;0.68;0.65;;;14.40;99.90;;;;;;4974112;28;20030;-90
2021/08/08 05:03:21;;;;;;;1.38;1.00;;;14.40;99.90;;;;;;4971758;28;20031;-92
2021/08/08 05:05:47;;;;;;;1.85;0.70;;;14.50;99.90;;;;;;4973189;28;20034;-92
2021/08/08 05:08:13;;;;;;;0.93;0.77;;;14.50;99.90;;;;;;4975041;28;20022;-91
2021/08/08 05:10:39;;;;;;;3.88;0.90;;;14.50;99.90;;;;;;4974922;28;20477;-90
2021/08/08 05:13:05;;;;;;;1.23;0.90;;;14.60;99.90;;;;;;4991127;28;20432;-89
2021/08/08 05:15:31;;;;;;;1.65;0.80;;;14.60;99.90;;;;;;4991894;28;20022;-90
2021/08/08 05:17:58;;;;;;;2.25;0.80;;;14.70;99.90;;;;;;4975764;28;20504;-89
2021/08/08 05:20:23;;;;;;;2.22;0.70;;;14.70;99.90;;;;;;4975719;28;20037;-91
2021/08/08 05:22:50;;;;;;;0.60;0.60;;;14.70;99.90;;;;;;4991769;28;20081;-89
2021/08/08 05:25:16;;;;;;;1.00;0.70;;;14.80;99.90;;;;;;4975921;28;20374;-89
2021/08/08 05:27:42;;;;;;;2.50;0.75;;;14.80;99.90;;;;;;4975182;28;20041;-89
2021/08/08 05:30:12;;;;;;;0.93;0.80;;;14.80;99.90;;;;;;4976220;28;20088;-89
2021/08/08 05:32:39;;;;;;;0.82;0.82;;;14.90;99.90;;;;;;4976113;28;20401;-89
2021/08/08 05:35:06;;;;;;;0.80;0.70;;;15.00;99.90;;;;;;4975557;28;20022;-89
2021/08/08 05:37:35;;;;;;;0.60;0.60;;;15.00;99.90;;;;;;4991593;28;20080;-91
2021/08/08 05:40:26;;;;;;;1.15;0.77;;;15.10;99.90;;;;;;4976236;28;20041;-88
2021/08/08 05:42:52;;;;;;;3.33;0.93;;;15.10;99.90;;;;;;4963250;28;20514;-88
2021/08/08 05:45:22;;;;;;;0.90;0.80;;;15.10;99.90;;;;;;4995545;28;20073;-90
2021/08/08 05:47:48;;;;;;;0.82;0.82;;;15.10;99.90;;;;;;4979773;28;20425;-90
2021/08/08 05:50:16;;;;;;;2.53;1.13;;;15.10;99.90;;;;;;4979588;28;20169;-88
2021/08/08 05:52:49;;;;;;;1.10;1.00;;;15.10;99.90;;;;;;4979168;28;20062;-89
2021/08/08 05:55:16;;;;;;;1.48;1.00;;;15.20;99.90;;;;;;4995982;28;20030;-88
2021/08/08 05:57:42;;;;;;;1.25;1.00;;;15.30;99.90;;;;;;4995070;28;20043;-90
2021/08/08 06:00:08;;;;;;;1.67;0.90;;;15.50;99.90;;;;;;4995616;28;20037;-89
2021/08/08 06:02:41;;;;;;;0.95;0.82;;;15.70;99.90;;;;;;4995522;28;20575;-90
2021/08/08 06:05:08;;;;;;;0.90;0.68;;;15.80;99.90;;;;;;4979271;28;20482;-89
2021/08/08 06:07:34;;;;;;;1.48;0.98;;;15.80;99.90;;;;;;4994982;28;20045;-88
2021/08/08 06:10:01;;;;;;;0.70;0.70;;;15.80;99.90;;;;;;4979010;28;20495;-88
2021/08/08 06:12:28;;;;;;;0.85;0.77;;;15.80;99.90;;;;;;4962954;28;20035;-88
2021/08/08 06:14:54;;;;;;;1.85;0.98;;;15.80;99.90;;;;;;4979402;28;20515;-88
2021/08/08 06:17:21;;;;;;;0.70;0.70;;;15.80;99.90;;;;;;4995873;28;20034;-87
2021/08/08 06:19:47;;;;;;;1.02;0.93;;;15.80;99.90;;;;;;4979132;28;20030;-90
2021/08/08 06:22:14;;;;;;;2.10;0.85;;;15.70;99.90;;;;;;4979392;28;20036;-90
2021/08/08 06:24:41;;;;;;;2.45;1.00;;;15.80;99.90;;;;;;4979851;28;20034;-89
2021/08/08 06:27:08;;;;;;;1.45;0.70;;;15.90;99.90;;;;;;4979392;28;20029;-90
2021/08/08 06:29:37;;;;;;;2.95;0.90;;;16.00;99.90;;;;;;4979186;28;20081;-88
2021/08/08 06:32:05;;;;;;;1.08;0.98;;;16.20;99.90;;;;;;4979474;28;20034;-88
2021/08/08 06:34:31;;;;;;;1.08;0.90;;;16.40;99.90;;;;;;4979830;28;20062;-87
2021/08/08 06:36:57;;;;;;;1.10;0.73;;;16.60;99.90;;;;;;4995212;28;20520;-87
2021/08/08 06:39:23;;;;;;;1.45;0.80;;;17.00;99.90;;;;;;4979289;28;20034;-88
2021/08/08 06:41:48;;;;;;;0.88;0.70;;;17.40;99.90;;;;;;4983528;28;20048;-88
2021/08/08 06:44:17;;;;;;;1.60;0.80;;;17.90;99.90;;;;;;4983759;28;20041;-88
2021/08/08 06:46:43;;;;;;;0.68;0.60;;;18.40;99.90;;;;;;4976575;28;20027;-89
2021/08/08 06:49:11;;;;;;;1.08;0.50;;;18.90;99.90;;;;;;4975665;28;20050;-89
2021/08/08 06:51:37;;;;;;;1.17;0.45;;;19.40;99.90;;;;;;4989341;28;20023;-90
2021/08/08 06:54:04;;;;;;;1.02;0.50;;;19.50;99.90;;;;;;4958945;28;20259;-90
2021/08/08 06:56:30;;;;;;;0.70;0.57;;;19.60;99.90;;;;;;4953647;28;20034;-89
2021/08/08 06:58:57;;;;;;;3.20;0.55;;;19.40;99.90;;;;;;4974104;28;20061;-87
2021/08/08 07:01:23;;;;;;;2.63;0.70;;;19.30;99.90;;;;;;4957182;28;20022;-87
2021/08/08 07:03:49;;;;;;;1.02;0.50;;;19.30;99.90;;;;;;4980896;28;20385;-87
2021/08/08 07:06:15;;;;;;;1.02;0.40;;;19.20;99.90;;;;;;4995556;28;20026;-88
2021/08/08 07:08:41;;;;;;;0.90;0.47;;;19.20;99.90;;;;;;4977462;28;20034;-88
2021/08/08 07:11:10;;;;;;;0.60;0.45;;;19.10;99.90;;;;;;4990741;28;20034;-88
2021/08/08 07:13:40;;;;;;;0.70;0.45;;;19.10;99.90;;;;;;4992160;28;20089;-87
2021/08/08 07:16:07;;;;;;;0.50;0.50;;;18.90;99.90;;;;;;4975630;28;20034;-89
2021/08/08 07:18:33;;;;;;;2.35;0.40;;;18.80;99.90;;;;;;4971479;28;20038;-86
2021/08/08 07:20:59;;;;;;;1.13;0.50;;;18.60;99.90;;;;;;4970890;28;20034;-87
2021/08/08 07:23:24;;;;;;;0.55;0.50;;;18.60;99.90;;;;;;4950768;28;20100;-88
2021/08/08 07:25:50;;;;;;;0.63;0.50;;;18.70;99.90;;;;;;4959514;28;20023;-88
2021/08/08 07:28:17;;;;;;;1.45;0.55;;;18.90;99.90;;;;;;4977422;28;20023;-87
2021/08/08 07:30:44;;;;;;;0.52;0.45;;;19.10;99.90;;;;;;4984780;28;20121;-86
2021/08/08 07:33:09;;;;;;;0.30;0.30;;;19.30;99.90;;;;;;4971123;28;20194;-87
2021/08/08 07:35:36;;;;;;;0.50;0.40;;;19.50;99.90;;;;;;4988350;28;20125;-88
2021/08/08 07:38:03;;;;;;;0.40;0.40;;;19.80;99.90;;;;;;4972914;28;20543;-88
2021/08/08 07:40:29;;;;;;;0.93;0.40;;;19.90;99.90;;;;;;4988327;28;20026;-88
2021/08/08 07:42:55;;;;;;;0.43;0.43;;;20.10;99.90;;;;;;4958080;28;20027;-88
2021/08/08 07:45:23;;;;;;;0.63;0.50;;;20.10;99.90;;;;;;4995815;28;20089;-89
2021/08/08 07:47:48;;;;;;;2.60;0.50;;;20.00;99.90;;;;;;4980454;28;20022;-87
2021/08/08 07:50:14;;;;;;;0.30;0.30;;;19.90;99.90;;;;;;4996416;28;20034;-88
2021/08/08 07:52:41;;;;;;;1.23;0.60;;;19.70;99.90;;;;;;4982654;28;20026;-87
2021/08/08 07:55:08;;;;;;;0.50;0.50;;;19.60;99.90;;;;;;4996045;28;20060;-88
2021/08/08 07:57:35;;;;;;;1.63;0.40;;;19.40;99.90;;;;;;4987612;28;20022;-88
2021/08/08 08:00:00;;;;;;;0.80;0.40;;;19.40;99.90;;;;;;4973572;28;20046;-88
2021/08/08 08:02:28;;;;;;;2.40;0.50;;;19.30;99.90;;;;;;4990985;28;20031;-88
2021/08/08 08:04:54;;;;;;;0.88;0.55;;;19.10;99.90;;;;;;4960131;28;20026;-88
2021/08/08 08:07:20;;;;;;;2.28;0.43;;;19.00;99.90;;;;;;4994243;28;20109;-89
2021/08/08 08:09:46;;;;;;;0.82;0.60;;;19.00;99.90;;;;;;4961672;28;20064;-87
2021/08/08 08:12:11;;;;;;;0.40;0.40;;;18.90;99.90;;;;;;4962050;28;20509;-87
2021/08/08 08:14:37;;;;;;;1.00;0.50;;;18.80;99.90;;;;;;4977798;28;20034;-88
2021/08/08 08:17:03;;;;;;;2.40;0.43;;;18.80;99.90;;;;;;4975254;28;20484;-88
2021/08/08 08:19:30;;;;;;;0.55;0.38;;;18.70;99.90;;;;;;4976515;28;20125;-89
2021/08/08 08:21:56;;;;;;;0.60;0.55;;;18.70;99.90;;;;;;4992133;28;20027;-88
2021/08/08 08:24:21;;;;;;;0.50;0.50;;;18.50;99.90;;;;;;4992051;28;20041;-87
2021/08/08 08:26:47;;;;;;;0.80;0.80;;;18.40;99.90;;;;;;4991760;28;20519;-88
2021/08/08 08:29:14;;;;;;;2.15;0.65;;;18.40;99.90;;;;;;4975167;28;20030;-88
2021/08/08 08:31:40;;;;;;;1.88;0.60;;;18.70;99.90;;;;;;4975893;28;20038;-90
2021/08/08 08:34:06;;;;;;;2.78;0.57;;;19.10;99.90;;;;;;4990109;28;20031;-88
2021/08/08 08:36:32;;;;;;;1.35;0.63;;;19.30;99.90;;;;;;4989253;28;20034;-87
2021/08/08 08:38:59;;;;;;;0.75;0.45;;;19.60;99.90;;;;;;4955034;28;20030;-89
2021/08/08 08:41:30;;;;;;;2.08;1.23;;;20.00;99.90;;;;;;4974901;28;20040;-88
2021/08/08 08:44:01;;;;;;;0.50;0.50;;;20.10;99.90;;;;;;4973514;28;20401;-87
2021/08/08 08:46:27;;;;;;;0.90;0.55;;;20.00;99.90;;;;;;4970671;28;20033;-89
2021/08/08 08:48:56;;;;;;;1.45;0.63;;;19.80;99.90;;;;;;4972148;28;20194;-87
2021/08/08 08:51:30;;;;;;;1.65;0.70;;;19.70;99.90;;;;;;4952538;28;20034;-87
2021/08/08 08:53:58;;;;;;;1.48;0.68;;;19.60;99.90;;;;;;4971289;28;20113;-87
2021/08/08 08:56:24;;;;;;;0.73;0.55;;;19.50;99.90;;;;;;4974249;28;20560;-87
2021/08/08 08:58:50;;;;;;;0.60;0.60;;;19.30;99.90;;;;;;4975172;28;20069;-87
2021/08/08 09:01:16;;;;;;;2.78;0.70;;;19.20;99.90;;;;;;4966196;28;20042;-87
2021/08/08 09:03:44;;;;;;;1.88;0.47;;;19.00;99.90;;;;;;4974979;28;20045;-89
2021/08/08 09:06:12;;;;;;;0.70;0.70;;;18.90;99.90;;;;;;4958828;28;20054;-89
2021/08/08 09:08:39;;;;;;;0.90;0.70;;;18.80;99.90;;;;;;4974672;28;20063;-87
2021/08/08 09:11:08;;;;;;;1.83;0.73;;;18.80;99.90;;;;;;4974870;28;20367;-89
2021/08/08 09:13:57;;;;;;;0.55;0.55;;;18.90;99.90;;;;;;5006702;28;20113;-87
2021/08/08 09:16:27;;;;;;;1.02;0.70;;;18.90;99.90;;;;;;4970839;28;20039;-88
2021/08/08 09:18:57;;;;;;;1.83;0.90;;;19.00;99.90;;;;;;4956337;28;20057;-87
2021/08/08 09:21:27;;;;;;;2.88;0.75;;;19.00;99.90;;;;;;4986881;28;20033;-87
2021/08/08 09:23:55;;;;;;;0.77;0.68;;;19.10;99.90;;;;;;4958776;28;20501;-87
2021/08/08 09:26:32;;;;;;;0.75;0.70;;;19.10;99.90;;;;;;4975601;28;20037;-89
2021/08/08 09:29:14;;;;;;;2.25;1.55;;;19.10;99.90;;;;;;4988010;28;20385;-87
2021/08/08 09:31:45;;;;;;;0.77;0.70;;;19.00;99.90;;;;;;4999450;28;20045;-89
2021/08/08 09:34:22;;;;;;;0.90;0.60;;;18.80;99.90;;;;;;4989370;28;20121;-87
2021/08/08 09:36:51;;;;;;;1.20;0.73;;;18.70;99.90;;;;;;4977827;28;20038;-88
2021/08/08 09:39:36;;;;;;;0.70;0.70;;;18.70;99.90;;;;;;4963979;28;20465;-88
2021/08/08 09:42:14;;;;;;;1.73;0.75;;;18.60;99.90;;;;;;4994822;28;20608;-88
2021/08/08 09:44:58;;;;;;;2.35;0.85;;;18.60;99.90;;;;;;4976548;28;20114;-89
2021/08/08 09:47:39;;;;;;;0.77;0.75;;;18.40;99.90;;;;;;4986187;28;20030;-89
2021/08/08 09:50:16;;;;;;;2.00;1.08;;;18.40;99.90;;;;;;4985881;28;20378;-87
2021/08/08 09:52:58;;;;;;;1.88;0.73;;;18.50;99.90;;;;;;4979821;28;20460;-87
2021/08/08 09:55:31;;;;;;;1.50;0.90;;;18.50;99.90;;;;;;4958234;28;20038;-87
2021/08/08 09:57:58;;;;;;;1.52;0.93;;;18.50;99.90;;;;;;4987085;28;20037;-87
2021/08/08 10:00:39;;;;;;;2.65;0.93;;;18.50;99.90;;;;;;4973239;28;20587;-88
2021/08/08 10:03:15;;;;;;;0.95;0.80;;;18.50;99.90;;;;;;4973223;28;20062;-89
2021/08/08 10:08:29;;;;;;;0.65;0.65;;;18.50;99.90;;;;;;4986338;28;20030;-89
2021/08/08 10:11:13;;;;;;;3.05;0.80;;;18.50;99.90;;;;;;5002615;28;20153;-87
2021/08/08 10:13:53;;;;;;;2.78;1.10;;;18.60;99.90;;;;;;4995738;28;20041;-89
2021/08/08 10:16:35;;;;;;;2.45;0.70;;;18.60;99.90;;;;;;4972171;28;20058;-88
2021/08/08 10:19:03;;;;;;;2.55;0.80;;;18.70;99.90;;;;;;4974048;28;20033;-87
2021/08/08 10:21:41;;;;;;;0.95;0.93;;;18.70;99.90;;;;;;4995127;28;20054;-89
2021/08/08 10:24:08;;;;;;;0.70;0.68;;;18.80;99.90;;;;;;4977250;28;20042;-88
2021/08/08 10:26:37;;;;;;;0.98;0.82;;;18.80;99.90;;;;;;4982065;28;20046;-88
2021/08/08 10:29:04;;;;;;;2.35;0.60;;;18.80;99.90;;;;;;4995445;28;20038;-88
2021/08/08 10:31:32;;;;;;;1.75;0.95;;;18.80;99.90;;;;;;4998982;28;20538;-88
2021/08/08 10:34:00;;;;;;;0.80;0.70;;;18.70;99.90;;;;;;4977449;28;20038;-86
2021/08/08 10:36:31;;;;;;;2.00;0.80;;;18.70;99.90;;;;;;4961579;28;20062;-87
2021/08/08 10:39:12;;;;;;;1.55;1.08;;;18.70;99.90;;;;;;4972095;28;20066;-87
2021/08/08 10:41:39;;;;;;;1.77;0.70;;;18.80;99.90;;;;;;4959803;28;20050;-87
2021/08/08 10:44:07;;;;;;;1.30;0.70;;;18.90;99.90;;;;;;4965485;28;20057;-86
2021/08/08 10:46:46;;;;;;;2.88;0.70;;;19.10;99.90;;;;;;4993455;28;20116;-89
2021/08/08 10:49:13;;;;;;;1.80;0.80;;;19.30;99.90;;;;;;4977880;28;20040;-88
2021/08/08 10:51:41;;;;;;;2.38;0.90;;;19.40;99.90;;;;;;4993462;28;20481;-89
2021/08/08 10:54:10;;;;;;;0.70;0.70;;;19.50;99.90;;;;;;4961649;28;20038;-89
2021/08/08 10:56:46;;;;;;;2.58;1.10;;;19.60;99.90;;;;;;4977110;28;20177;-89
2021/08/08 10:59:20;;;;;;;1.23;0.68;;;19.80;99.90;;;;;;4976525;28;20034;-89
2021/08/08 11:01:47;;;;;;;2.45;0.75;;;19.90;99.90;;;;;;4993257;28;20049;-87
2021/08/08 11:04:14;;;;;;;1.23;0.85;;;20.00;99.90;;;;;;4974923;28;20484;-91
2021/08/08 11:06:45;;;;;;;1.33;0.60;;;19.90;99.90;;;;;;4974209;28;20550;-88
2021/08/08 11:09:12;;;;;;;1.35;0.90;;;19.90;99.90;;;;;;4973725;28;20050;-88
2021/08/08 11:11:39;;;;;;;0.82;0.70;;;19.90;99.90;;;;;;4973193;28;20031;-88
2021/08/08 11:14:14;;;;;;;1.60;0.77;;;19.90;99.90;;;;;;4985065;28;20173;-88
2021/08/08 11:17:01;;;;;;;3.40;1.00;;;19.90;99.90;;;;;;4978338;28;20117;-87
2021/08/08 11:19:35;;;;;;;1.67;0.70;;;19.90;99.90;;;;;;4994326;28;20045;-87
2021/08/08 11:22:15;;;;;;;1.30;0.60;;;20.00;99.90;;;;;;4995095;28;20417;-88
2021/08/08 11:24:43;;;;;;;1.17;0.60;;;20.20;99.90;;;;;;4978372;28;20121;-87
2021/08/08 11:27:11;;;;;;;1.05;0.60;;;20.20;99.90;;;;;;4978365;28;20018;-87
2021/08/08 11:29:38;;;;;;;1.13;0.70;;;20.30;99.90;;;;;;4978739;28;20400;-89
2021/08/08 11:32:07;;;;;;;0.95;0.60;;;20.40;99.90;;;;;;4993295;28;20057;-87
2021/08/08 11:34:33;;;;;;;4.20;0.70;;;20.30;99.90;;;;;;4994284;28;20058;-87
2021/08/08 11:36:59;;;;;;;1.30;0.70;;;20.30;99.90;;;;;;4993660;28;20034;-89
2021/08/08 11:39:33;;;;;;;1.73;0.73;;;20.20;99.90;;;;;;4992356;28;20114;-89
2021/08/08 11:42:07;;;;;;;0.73;0.60;;;20.20;99.90;;;;;;4976788;28;20037;-87
2021/08/08 11:44:41;;;;;;;1.70;0.82;;;20.20;99.90;;;;;;4976814;28;20034;-88
2021/08/08 11:47:08;;;;;;;0.90;0.70;;;20.20;99.90;;;;;;4993598;28;20038;-87
2021/08/08 11:49:45;;;;;;;1.80;0.75;;;20.20;99.90;;;;;;4977644;28;20405;-88
2021/08/08 11:52:19;;;;;;;0.63;0.63;;;20.10;99.90;;;;;;4993481;28;20034;-88
2021/08/08 11:54:57;;;;;;;1.15;0.77;;;20.20;99.90;;;;;;4976763;28;20638;-89
2021/08/08 11:57:28;;;;;;;1.85;0.68;;;20.20;99.90;;;;;;4993060;28;20038;-88
2021/08/08 11:59:55;;;;;;;1.05;0.60;;;20.40;99.90;;;;;;4976409;28;20034;-88
2021/08/08 12:02:24;;;;;;;2.38;1.00;;;20.70;99.90;;;;;;4957304;28;20039;-88
2021/08/08 12:04:51;;;;;;;2.92;0.98;;;20.90;99.90;;;;;;4957921;28;20045;-88
2021/08/08 12:07:22;;;;;;;1.38;0.70;;;21.10;99.90;;;;;;4957588;28;20034;-89
2021/08/08 12:09:49;;;;;;;0.52;0.52;;;21.20;99.90;;;;;;4957170;28;20027;-88
2021/08/08 12:12:16;;;;;;;1.42;0.88;;;21.30;99.90;;;;;;4957008;28;20066;-88
2021/08/08 12:14:47;;;;;;;0.95;0.40;;;21.40;99.90;;;;;;4957803;28;20027;-88
2021/08/08 12:17:22;;;;;;;1.65;0.65;;;21.30;99.90;;;;;;4973395;28;20057;-88
2021/08/08 12:19:50;;;;;;;5.90;0.82;;;21.30;99.90;;;;;;4972750;28;20031;-86
2021/08/08 12:22:18;;;;;;;2.90;0.70;;;21.10;99.90;;;;;;4973497;28;20076;-88
2021/08/08 12:24:47;;;;;;;2.13;0.80;;;21.10;99.90;;;;;;4957400;28;20051;-88
2021/08/08 12:27:27;;;;;;;3.15;0.90;;;21.10;99.90;;;;;;4975144;28;20366;-87
2021/08/08 12:29:57;;;;;;;0.70;0.70;;;21.10;99.90;;;;;;4957516;28;20055;-87
2021/08/08 12:32:23;;;;;;;2.20;1.00;;;21.20;99.90;;;;;;4958701;28;20030;-88
2021/08/08 12:34:50;;;;;;;1.60;0.63;;;21.30;99.90;;;;;;4990673;28;20091;-87
2021/08/08 12:37:21;;;;;;;0.63;0.50;;;21.30;99.90;;;;;;4999275;28;20048;-88
2021/08/08 12:39:47;;;;;;;0.80;0.45;;;21.30;99.90;;;;;;5016188;28;20408;-87
2021/08/08 12:42:23;;;;;;;0.70;0.70;;;21.40;99.90;;;;;;4971416;28;20200;-88
2021/08/08 12:45:00;;;;;;;1.75;0.50;;;21.50;99.90;;;;;;4993552;28;20093;-87
2021/08/08 12:47:30;;;;;;;2.13;0.93;;;21.60;99.90;;;;;;4994048;28;20034;-87
2021/08/08 12:49:56;;;;;;;1.52;0.60;;;21.70;99.90;;;;;;4978376;28;20507;-87
2021/08/08 12:52:22;;;;;;;0.50;0.50;;;21.70;99.90;;;;;;4978992;28;20038;-87
2021/08/08 12:54:48;;;;;;;1.35;1.05;;;21.70;99.90;;;;;;4976720;28;20026;-88
2021/08/08 12:57:14;;;;;;;4.00;0.75;;;21.60;99.90;;;;;;4975417;28;20477;-88
2021/08/08 12:59:39;;;;;;;0.50;0.50;;;21.60;99.90;;;;;;4975407;28;20121;-88